createdAt,value
2022-08-10T00:01:06.701Z,17.383423
2022-08-10T00:02:16.333Z,17.34314
2022-08-10T00:03:23.993Z,17.363281
2022-08-10T00:04:33.679Z,17.363281
2022-08-10T00:05:43.293Z,17.383423
2022-08-10T00:06:52.988Z,17.363281
2022-08-10T00:08:02.703Z,17.34314
2022-08-10T00:09:10.376Z,17.312927
2022-08-10T00:10:20.041Z,17.34314
2022-08-10T00:11:29.748Z,17.333069
2022-08-10T00:12:54.152Z,17.34314
2022-08-10T00:13:47.017Z,17.363281
2022-08-10T00:14:55.687Z,17.333069
2022-08-10T00:16:04.364Z,17.34314
2022-08-10T00:17:14.030Z,17.333069
2022-08-10T00:18:31.651Z,17.333069
2022-08-10T00:19:34.818Z,17.34314
2022-08-10T00:20:42.014Z,17.333069
2022-08-10T00:21:49.666Z,17.34314
2022-08-10T00:22:59.317Z,17.34314
2022-08-10T00:24:08.969Z,17.34314
2022-08-10T00:25:18.678Z,17.383423
2022-08-10T00:27:46.783Z,17.383423
2022-08-10T00:27:53.092Z,17.383423
2022-08-10T00:28:49.695Z,17.363281
2022-08-10T00:29:59.399Z,17.333069
2022-08-10T00:31:07.126Z,17.34314
2022-08-10T00:32:16.797Z,17.312927
2022-08-10T00:33:26.482Z,17.302856
2022-08-10T00:34:35.193Z,17.272644
2022-08-10T00:35:44.872Z,17.272644
2022-08-10T00:36:53.655Z,17.262573
2022-08-10T00:38:03.394Z,17.262573
2022-08-10T00:39:13.777Z,17.242432
2022-08-10T00:40:35.311Z,17.242432
2022-08-10T00:41:31.379Z,17.22229
2022-08-10T00:42:40.086Z,17.202148
2022-08-10T00:43:47.743Z,17.202148
2022-08-10T00:44:57.413Z,17.161865
2022-08-10T00:46:05.126Z,17.151794
2022-08-10T00:47:22.638Z,17.161865
2022-08-10T00:48:24.440Z,17.141724
2022-08-10T00:49:33.117Z,17.09137
2022-08-10T00:50:42.781Z,17.061157
2022-08-10T00:51:52.465Z,17.081299
2022-08-10T00:53:00.114Z,17.09137
2022-08-10T00:54:09.812Z,17.111511
2022-08-10T00:55:20.439Z,17.111511
2022-08-10T00:56:35.527Z,17.081299
2022-08-10T00:57:39.738Z,17.061157
2022-08-10T00:58:49.427Z,17.081299
2022-08-10T00:59:58.238Z,17.061157
2022-08-10T01:01:06.828Z,17.081299
2022-08-10T01:02:17.459Z,17.051086
2022-08-10T01:04:36.933Z,17.041016
2022-08-10T01:04:59.199Z,17.010803
2022-08-10T01:05:51.143Z,16.990662
2022-08-10T01:06:58.099Z,17.010803
2022-08-10T01:08:06.862Z,16.990662
2022-08-10T01:09:15.599Z,16.990662
2022-08-10T01:10:25.342Z,16.97052
2022-08-10T01:12:28.763Z,16.960449
2022-08-10T01:12:44.864Z,16.930237
2022-08-10T01:13:54.574Z,16.900024
2022-08-10T01:15:02.343Z,16.869812
2022-08-10T01:16:13.400Z,16.859741
2022-08-10T01:17:20.846Z,16.829529
2022-08-10T01:18:34.756Z,16.829529
2022-08-10T01:19:41.349Z,16.789246
2022-08-10T01:20:49.098Z,16.779175
2022-08-10T01:21:58.831Z,16.779175
2022-08-10T01:23:08.655Z,16.779175
2022-08-10T01:24:17.339Z,16.759033
2022-08-10T01:25:27.092Z,16.759033
2022-08-10T01:26:37.110Z,16.738892
2022-08-10T01:27:47.668Z,16.71875
2022-08-10T01:28:55.441Z,16.71875
2022-08-10T01:30:05.419Z,16.658325
2022-08-10T01:31:15.163Z,16.648254
2022-08-10T01:32:23.957Z,16.658325
2022-08-10T01:33:58.312Z,16.658325
2022-08-10T01:34:44.553Z,16.678467
2022-08-10T01:35:54.262Z,16.678467
2022-08-10T01:37:03.984Z,16.688538
2022-08-10T01:38:13.868Z,16.708679
2022-08-10T01:39:22.634Z,16.708679
2022-08-10T01:40:32.428Z,16.688538
2022-08-10T01:41:45.663Z,16.678467
2022-08-10T01:42:51.965Z,16.658325
2022-08-10T01:44:03.575Z,16.638184
2022-08-10T01:45:11.441Z,16.567688
2022-08-10T01:46:19.148Z,16.507263
2022-08-10T01:47:28.883Z,16.456909
2022-08-10T01:48:37.597Z,16.416626
2022-08-10T01:49:46.329Z,16.406555
2022-08-10T01:51:00.004Z,16.406555
2022-08-10T01:52:05.805Z,16.406555
2022-08-10T01:53:15.511Z,16.386414
2022-08-10T01:54:25.285Z,16.406555
2022-08-10T01:55:33.042Z,16.416626
2022-08-10T01:56:42.794Z,16.426697
2022-08-10T01:57:51.530Z,16.426697
2022-08-10T01:59:00.259Z,16.456909
2022-08-10T02:00:10.001Z,16.426697
2022-08-10T02:01:18.781Z,16.456909
2022-08-10T02:02:27.457Z,16.487122
2022-08-10T02:04:01.463Z,16.46698
2022-08-10T02:04:47.860Z,16.456909
2022-08-10T02:05:57.590Z,16.426697
2022-08-10T02:07:07.286Z,16.406555
2022-08-10T02:08:17.022Z,16.416626
2022-08-10T02:09:26.801Z,16.416626
2022-08-10T02:10:35.531Z,16.386414
2022-08-10T02:11:56.201Z,16.376343
2022-08-10T02:12:55.951Z,16.386414
2022-08-10T02:14:05.687Z,16.406555
2022-08-10T02:15:15.534Z,16.386414
2022-08-10T02:16:24.246Z,16.386414
2022-08-10T02:17:58.840Z,16.376343
2022-08-10T02:18:43.708Z,16.376343
2022-08-10T02:19:53.433Z,16.34613
2022-08-10T02:21:02.142Z,16.325989
2022-08-10T02:22:37.215Z,16.315918
2022-08-10T02:23:22.576Z,16.285706
2022-08-10T02:24:32.311Z,16.275635
2022-08-10T02:25:43.734Z,16.275635
2022-08-10T02:26:50.842Z,16.235352
2022-08-10T02:28:00.570Z,16.205139
2022-08-10T02:29:09.301Z,16.195068
2022-08-10T02:30:18.020Z,16.164856
2022-08-10T02:31:27.710Z,16.154785
2022-08-10T02:32:38.421Z,16.134644
2022-08-10T02:33:56.987Z,16.124573
2022-08-10T02:34:58.121Z,16.104431
2022-08-10T02:36:07.831Z,16.09436
2022-08-10T02:37:16.621Z,16.054077
2022-08-10T02:38:57.391Z,16.023865
2022-08-10T02:39:37.226Z,16.013794
2022-08-10T02:42:17.757Z,16.013794
2022-08-10T02:42:17.859Z,16.013794
2022-08-10T02:45:08.349Z,16.003723
2022-08-10T02:45:17.072Z,15.983582
2022-08-10T02:45:31.591Z,16.013794
2022-08-10T02:46:40.451Z,16.013794
2022-08-10T02:47:51.837Z,16.013794
2022-08-10T02:48:58.981Z,16.044006
2022-08-10T02:50:08.714Z,16.054077
2022-08-10T02:51:18.541Z,16.054077
2022-08-10T02:52:29.246Z,16.023865
2022-08-10T02:53:49.733Z,16.013794
2022-08-10T02:54:48.741Z,15.973511
2022-08-10T02:55:57.509Z,15.983582
2022-08-10T02:57:05.249Z,15.973511
2022-08-10T02:58:17.660Z,15.973511
2022-08-10T02:59:25.232Z,15.973511
2022-08-10T03:00:35.917Z,15.983582
2022-08-10T03:01:45.643Z,16.013794
2022-08-10T03:02:54.451Z,15.973511
2022-08-10T03:04:02.200Z,15.923157
2022-08-10T03:05:12.259Z,15.923157
2022-08-10T03:06:20.974Z,15.923157
2022-08-10T03:07:42.646Z,15.923157
2022-08-10T03:08:41.458Z,15.913086
2022-08-10T03:09:50.173Z,15.973511
2022-08-10T03:11:00.058Z,15.983582
2022-08-10T03:12:16.336Z,16.003723
2022-08-10T03:13:19.475Z,16.023865
2022-08-10T03:14:29.241Z,16.023865
2022-08-10T03:15:37.950Z,15.973511
2022-08-10T03:16:46.840Z,15.923157
2022-08-10T03:17:57.363Z,15.913086
2022-08-10T03:19:05.334Z,15.882874
2022-08-10T03:20:36.360Z,15.84259
2022-08-10T03:21:26.786Z,15.84259
2022-08-10T03:22:34.585Z,15.84259
2022-08-10T03:23:44.237Z,15.802307
2022-08-10T03:24:52.028Z,15.802307
2022-08-10T03:26:01.791Z,15.751953
2022-08-10T03:27:10.495Z,15.671387
2022-08-10T03:28:20.691Z,15.651245
2022-08-10T03:29:29.985Z,15.59082
2022-08-10T03:30:40.742Z,15.550537
2022-08-10T03:31:48.462Z,15.520325
2022-08-10T03:32:58.168Z,15.510254
2022-08-10T03:34:06.910Z,15.490112
2022-08-10T03:35:17.726Z,15.490112
2022-08-10T03:36:40.776Z,15.520325
2022-08-10T03:37:37.392Z,15.520325
2022-08-10T03:38:48.082Z,15.550537
2022-08-10T03:39:56.819Z,15.550537
2022-08-10T03:41:06.614Z,15.550537
2022-08-10T03:42:17.351Z,15.58075
2022-08-10T03:43:25.138Z,15.59082
2022-08-10T03:44:34.898Z,15.610962
2022-08-10T03:45:54.617Z,15.58075
2022-08-10T03:46:53.348Z,15.570679
2022-08-10T03:48:02.260Z,15.540466
2022-08-10T03:49:10.215Z,15.520325
2022-08-10T03:50:27.821Z,15.469971
2022-08-10T03:51:30.589Z,15.419617
2022-08-10T03:52:38.379Z,15.399475
2022-08-10T03:54:04.078Z,15.389404
2022-08-10T03:54:58.855Z,15.419617
2022-08-10T03:56:27.786Z,15.429688
2022-08-10T03:57:18.354Z,15.4599
2022-08-10T03:58:26.098Z,15.4599
2022-08-10T03:59:35.836Z,15.4599
2022-08-10T04:00:44.967Z,15.4599
2022-08-10T04:02:42.397Z,15.439758
2022-08-10T04:03:03.631Z,15.4599
2022-08-10T04:04:13.790Z,15.510254
2022-08-10T04:05:21.189Z,15.59082
2022-08-10T04:06:31.970Z,15.651245
2022-08-10T04:07:40.686Z,15.681458
2022-08-10T04:08:50.410Z,15.701599
2022-08-10T04:10:00.174Z,15.681458
2022-08-10T04:11:09.869Z,15.721741
2022-08-10T04:12:19.622Z,15.762024
2022-08-10T04:13:28.394Z,15.762024
2022-08-10T04:14:38.880Z,15.772095
2022-08-10T04:15:47.797Z,15.772095
2022-08-10T04:16:55.568Z,15.772095
2022-08-10T04:18:06.418Z,15.822449
2022-08-10T04:19:14.007Z,15.84259
2022-08-10T04:20:23.736Z,15.84259
2022-08-10T04:21:34.441Z,15.822449
2022-08-10T04:22:43.210Z,15.802307
2022-08-10T04:23:53.268Z,15.792236
2022-08-10T04:25:01.654Z,15.772095
2022-08-10T04:26:10.336Z,15.751953
2022-08-10T04:27:20.032Z,15.731812
2022-08-10T04:28:28.743Z,15.721741
2022-08-10T04:29:36.534Z,15.681458
2022-08-10T04:30:45.537Z,15.671387
2022-08-10T04:31:54.255Z,15.671387
2022-08-10T04:33:02.986Z,15.651245
2022-08-10T04:34:11.717Z,15.641174
2022-08-10T04:35:20.970Z,15.621033
2022-08-10T04:36:30.720Z,15.610962
2022-08-10T04:37:43.464Z,15.610962
2022-08-10T04:38:50.094Z,15.610962
2022-08-10T04:39:59.831Z,15.621033
2022-08-10T04:41:08.514Z,15.651245
2022-08-10T04:42:18.191Z,15.651245
2022-08-10T04:43:27.889Z,15.671387
2022-08-10T04:44:36.602Z,15.681458
2022-08-10T04:45:47.186Z,15.701599
2022-08-10T04:46:58.652Z,15.681458
2022-08-10T04:48:03.852Z,15.671387
2022-08-10T04:49:55.790Z,15.681458
2022-08-10T04:50:25.171Z,15.681458
2022-08-10T04:51:34.113Z,15.651245
2022-08-10T04:52:43.753Z,15.641174
2022-08-10T04:54:03.510Z,15.651245
2022-08-10T04:55:02.110Z,15.681458
2022-08-10T04:56:10.849Z,15.721741
2022-08-10T04:57:18.565Z,15.762024
2022-08-10T04:58:29.068Z,15.792236
2022-08-10T04:59:43.270Z,15.84259
2022-08-10T05:00:52.016Z,15.903015
2022-08-10T05:02:21.746Z,15.973511
2022-08-10T05:03:13.943Z,16.003723
2022-08-10T05:04:34.281Z,16.044006
2022-08-10T05:05:36.308Z,16.08429
2022-08-10T05:06:44.998Z,16.044006
2022-08-10T05:07:56.821Z,16.044006
2022-08-10T05:09:03.558Z,16.044006
2022-08-10T05:10:13.560Z,16.023865
2022-08-10T05:11:24.104Z,16.013794
2022-08-10T05:12:29.899Z,16.013794
2022-08-10T05:13:39.613Z,16.023865
2022-08-10T05:14:50.349Z,16.08429
2022-08-10T05:15:59.034Z,16.124573
2022-08-10T05:17:08.781Z,16.174927
2022-08-10T05:18:18.474Z,16.205139
2022-08-10T05:20:02.550Z,16.205139
2022-08-10T05:20:38.915Z,16.235352
2022-08-10T05:21:52.277Z,16.275635
2022-08-10T05:22:57.420Z,16.255493
2022-08-10T05:24:06.126Z,16.255493
2022-08-10T05:25:14.834Z,16.255493
2022-08-10T05:26:24.586Z,16.275635
2022-08-10T05:27:33.331Z,16.255493
2022-08-10T05:28:43.050Z,16.275635
2022-08-10T05:30:01.892Z,16.315918
2022-08-10T05:31:03.487Z,16.315918
2022-08-10T05:32:13.246Z,16.34613
2022-08-10T05:33:22.016Z,16.34613
2022-08-10T05:34:29.704Z,16.34613
2022-08-10T05:35:55.582Z,16.386414
2022-08-10T05:36:50.144Z,16.406555
2022-08-10T05:38:11.351Z,16.416626
2022-08-10T05:39:10.651Z,16.426697
2022-08-10T05:40:20.303Z,16.46698
2022-08-10T05:41:30.025Z,16.497192
2022-08-10T05:42:38.710Z,16.527405
2022-08-10T05:43:48.476Z,16.577759
2022-08-10T05:44:58.191Z,16.5979
2022-08-10T05:46:16.268Z,16.638184
2022-08-10T05:47:17.587Z,16.658325
2022-08-10T05:48:41.383Z,16.688538
2022-08-10T05:49:38.009Z,16.748962
2022-08-10T05:50:47.835Z,16.779175
2022-08-10T05:51:55.409Z,16.809387
2022-08-10T05:53:23.222Z,16.809387
2022-08-10T05:54:15.747Z,16.8396
2022-08-10T05:55:23.545Z,16.8396
2022-08-10T05:56:54.605Z,16.869812
2022-08-10T05:57:43.985Z,16.889954
2022-08-10T05:58:51.682Z,16.930237
2022-08-10T06:00:09.316Z,16.990662
2022-08-10T06:01:12.127Z,17.041016
2022-08-10T06:02:32.253Z,17.051086
2022-08-10T06:03:32.463Z,17.081299
2022-08-10T06:04:40.141Z,17.141724
2022-08-10T06:05:48.853Z,17.192078
2022-08-10T06:06:56.612Z,17.232361
2022-08-10T06:08:05.338Z,17.262573
2022-08-10T06:09:15.065Z,17.333069
2022-08-10T06:10:28.534Z,17.393494
2022-08-10T06:12:24.821Z,17.463989
2022-08-10T06:12:54.626Z,17.524414
2022-08-10T06:13:58.000Z,17.60498
2022-08-10T06:15:10.140Z,17.645264
2022-08-10T06:16:17.455Z,17.735901
2022-08-10T06:17:26.189Z,17.756042
2022-08-10T06:18:35.948Z,17.826538
2022-08-10T06:19:43.623Z,17.85675
2022-08-10T06:20:53.331Z,17.886963
2022-08-10T06:22:02.056Z,17.937317
2022-08-10T06:23:10.865Z,17.997742
2022-08-10T06:24:20.584Z,18.038025
2022-08-10T06:26:09.253Z,18.108521
2022-08-10T06:26:41.924Z,18.219299
2022-08-10T06:27:51.626Z,18.279724
2022-08-10T06:29:03.450Z,18.35022
2022-08-10T06:30:20.464Z,18.440857
2022-08-10T06:31:21.826Z,18.501282
2022-08-10T06:32:30.485Z,18.561707
2022-08-10T06:33:40.247Z,18.662415
2022-08-10T06:34:48.957Z,18.742981
2022-08-10T06:35:58.679Z,18.813477
2022-08-10T06:37:08.397Z,18.934326
2022-08-10T06:38:17.123Z,19.004822
2022-08-10T06:39:35.149Z,19.10553
2022-08-10T06:40:37.445Z,19.176025
2022-08-10T06:41:58.139Z,19.266663
2022-08-10T06:42:56.868Z,19.367371
2022-08-10T06:44:06.559Z,19.478149
2022-08-10T06:45:15.294Z,19.558716
2022-08-10T06:46:25.032Z,19.669495
2022-08-10T06:47:34.857Z,19.770203
2022-08-10T06:48:44.567Z,19.891052
2022-08-10T06:49:54.298Z,20.032043
2022-08-10T06:51:05.025Z,20.162964
2022-08-10T06:52:18.212Z,20.324097
2022-08-10T06:53:24.449Z,20.444946
2022-08-10T06:54:35.144Z,20.545654
2022-08-10T06:55:50.188Z,20.596008
2022-08-10T06:57:08.372Z,20.686646
2022-08-10T06:58:06.335Z,20.837708
2022-08-10T06:59:21.572Z,20.99884
2022-08-10T07:00:27.656Z,21.11969
2022-08-10T07:01:36.440Z,21.24054
2022-08-10T07:02:45.105Z,21.25061
2022-08-10T07:03:53.749Z,21.391602
2022-08-10T07:05:03.414Z,21.50238
2022-08-10T07:06:11.081Z,21.62323
2022-08-10T07:07:20.724Z,21.75415
2022-08-10T07:08:30.383Z,21.885071
2022-08-10T07:09:38.034Z,22.036133
2022-08-10T07:10:47.710Z,22.167053
2022-08-10T07:11:55.422Z,22.277832
2022-08-10T07:13:05.066Z,22.348328
2022-08-10T07:14:18.296Z,22.438965
2022-08-10T07:15:24.379Z,22.600098
2022-08-10T07:16:35.120Z,22.801514
2022-08-10T07:17:44.780Z,22.932434
2022-08-10T07:18:52.415Z,23.053284
2022-08-10T07:20:01.111Z,23.093567
2022-08-10T07:21:10.708Z,23.103638
2022-08-10T07:23:00.908Z,23.234558
2022-08-10T07:23:56.405Z,23.315125
2022-08-10T07:24:39.645Z,23.365479
2022-08-10T07:25:49.319Z,23.395691
2022-08-10T07:26:57.975Z,23.476257
2022-08-10T07:28:05.638Z,23.607178
2022-08-10T07:29:24.731Z,23.728027
2022-08-10T07:30:25.953Z,23.768311
2022-08-10T07:31:55.321Z,23.879089
2022-08-10T07:32:45.201Z,23.949585
2022-08-10T07:33:53.887Z,23.909302
2022-08-10T07:35:03.550Z,23.949585
2022-08-10T07:36:12.209Z,23.989868
2022-08-10T07:37:21.858Z,24.050293
2022-08-10T07:38:31.505Z,24.130859
2022-08-10T07:39:58.643Z,24.171143
2022-08-10T07:40:50.821Z,24.26178
2022-08-10T07:41:59.476Z,24.291992
2022-08-10T07:43:09.126Z,24.422913
2022-08-10T07:44:18.853Z,24.51355
2022-08-10T07:45:26.551Z,24.51355
2022-08-10T07:46:36.226Z,24.543762
2022-08-10T07:47:46.546Z,24.533691
2022-08-10T07:48:55.513Z,24.614258
2022-08-10T07:50:06.166Z,24.755249
2022-08-10T07:51:14.952Z,24.876099
2022-08-10T07:52:23.605Z,24.986877
2022-08-10T07:53:33.319Z,25.137939
2022-08-10T07:54:41.994Z,25.228577
2022-08-10T07:56:01.345Z,25.309143
2022-08-10T07:57:02.355Z,25.278931
2022-08-10T07:58:11.040Z,25.258789
2022-08-10T07:59:20.701Z,25.258789
2022-08-10T08:00:28.385Z,25.158081
2022-08-10T08:01:38.067Z,25.077515
2022-08-10T08:02:47.778Z,25.067444
2022-08-10T08:04:05.227Z,25.037231
2022-08-10T08:05:05.051Z,25.107727
2022-08-10T08:06:15.710Z,25.218506
2022-08-10T08:07:24.371Z,25.057373
2022-08-10T08:08:35.053Z,25.077515
2022-08-10T08:09:56.984Z,25.208435
2022-08-10T08:10:55.379Z,25.289001
2022-08-10T08:12:05.045Z,25.470276
2022-08-10T08:13:14.699Z,25.581055
2022-08-10T08:14:24.417Z,25.65155
2022-08-10T08:16:18.954Z,25.470276
2022-08-10T08:16:44.688Z,25.500488
2022-08-10T08:17:59.903Z,25.591125
2022-08-10T08:19:25.820Z,25.550842
2022-08-10T08:20:14.743Z,25.661621
2022-08-10T08:24:03.778Z,25.832825
2022-08-10T08:24:03.957Z,25.691833
2022-08-10T08:24:12.216Z,25.65155
2022-08-10T08:24:57.279Z,25.681763
2022-08-10T08:26:06.942Z,25.681763
2022-08-10T08:27:16.593Z,25.631409
2022-08-10T08:28:25.237Z,25.500488
2022-08-10T08:29:33.874Z,25.480347
2022-08-10T08:30:48.377Z,25.530701
2022-08-10T08:31:54.418Z,25.601196
2022-08-10T08:33:02.849Z,25.732117
2022-08-10T08:34:13.513Z,25.883179
2022-08-10T08:35:22.193Z,25.933533
2022-08-10T08:36:31.852Z,25.993958
2022-08-10T08:38:29.027Z,26.004028
2022-08-10T08:38:51.145Z,25.812683
2022-08-10T08:40:00.797Z,25.852966
2022-08-10T08:41:08.438Z,25.883179
2022-08-10T08:42:18.136Z,25.963745
2022-08-10T08:43:31.307Z,26.054382
2022-08-10T08:44:35.491Z,26.175232
2022-08-10T08:45:50.995Z,26.27594
2022-08-10T08:46:59.040Z,26.245728
2022-08-10T08:48:06.374Z,26.286011
2022-08-10T08:49:41.604Z,26.427002
2022-08-10T08:50:25.763Z,26.65863
2022-08-10T08:52:06.051Z,26.890259
2022-08-10T08:52:46.035Z,27.051392
2022-08-10T08:54:01.418Z,27.222595
2022-08-10T08:55:05.465Z,27.40387
2022-08-10T08:56:16.165Z,27.524719
2022-08-10T08:57:49.921Z,27.554932
2022-08-10T08:58:35.483Z,27.595215
2022-08-10T08:59:43.116Z,27.554932
2022-08-10T09:00:53.826Z,27.595215
2022-08-10T09:02:03.546Z,27.66571
2022-08-10T09:03:11.167Z,27.625427
2022-08-10T09:04:21.891Z,27.595215
2022-08-10T09:05:29.494Z,27.494507
2022-08-10T09:06:40.288Z,27.424011
2022-08-10T09:07:59.806Z,27.575073
2022-08-10T09:09:00.616Z,27.695923
2022-08-10T09:10:10.277Z,27.846985
2022-08-10T09:11:18.908Z,27.887268
2022-08-10T09:12:27.595Z,27.897339
2022-08-10T09:13:37.235Z,27.726135
2022-08-10T09:14:46.887Z,27.705994
2022-08-10T09:16:00.549Z,27.826843
2022-08-10T09:17:06.204Z,27.796631
2022-08-10T09:18:14.890Z,27.91748
2022-08-10T09:19:35.288Z,28.008118
2022-08-10T09:20:35.199Z,28.078613
2022-08-10T09:21:55.132Z,28.018188
2022-08-10T09:22:57.361Z,28.008118
2022-08-10T09:24:05.609Z,28.008118
2022-08-10T09:25:12.939Z,27.977905
2022-08-10T09:26:21.604Z,28.018188
2022-08-10T09:27:32.301Z,28.118896
2022-08-10T09:28:40.971Z,28.229675
2022-08-10T09:29:50.621Z,28.269958
2022-08-10T09:31:19.085Z,28.259888
2022-08-10T09:33:07.611Z,28.219604
2022-08-10T09:36:17.841Z,28.249817
2022-08-10T09:36:17.865Z,28.189392
2022-08-10T09:36:19.058Z,28.199463
2022-08-10T09:36:51.534Z,28.269958
2022-08-10T09:38:03.157Z,28.2901
2022-08-10T09:39:09.908Z,28.370667
2022-08-10T09:40:58.766Z,28.370667
2022-08-10T09:41:31.198Z,28.380737
2022-08-10T09:42:38.825Z,28.390808
2022-08-10T09:43:49.470Z,28.451233
2022-08-10T09:44:58.827Z,28.491516
2022-08-10T09:46:11.008Z,28.622437
2022-08-10T09:47:17.498Z,28.602295
2022-08-10T09:48:28.158Z,28.380737
2022-08-10T09:49:54.254Z,28.219604
2022-08-10T09:51:59.062Z,28.229675
2022-08-10T09:53:08.769Z,28.41095
2022-08-10T09:54:16.401Z,28.622437
2022-08-10T09:56:16.856Z,28.763428
2022-08-10T09:56:35.684Z,28.813782
2022-08-10T09:57:46.230Z,28.884277
2022-08-10T09:59:27.402Z,28.934631
2022-08-10T10:00:03.835Z,28.934631
2022-08-10T10:01:22.340Z,28.984985
2022-08-10T10:02:22.100Z,29.035339
2022-08-10T10:03:30.874Z,29.125977
2022-08-10T10:04:39.524Z,29.125977
2022-08-10T10:05:50.152Z,29.186401
2022-08-10T10:06:57.849Z,28.984985
2022-08-10T10:08:07.514Z,29.015198
2022-08-10T10:09:17.168Z,29.035339
2022-08-10T10:10:27.986Z,29.226685
2022-08-10T10:11:38.651Z,29.287109
2022-08-10T10:12:47.360Z,29.266968
2022-08-10T10:14:02.295Z,29.317322
2022-08-10T10:15:06.643Z,29.226685
2022-08-10T10:16:15.294Z,29.196472
2022-08-10T10:17:24.969Z,29.266968
2022-08-10T10:18:33.646Z,29.407959
2022-08-10T10:19:41.307Z,29.438171
2022-08-10T10:20:50.954Z,29.468384
2022-08-10T10:22:00.654Z,29.387817
2022-08-10T10:23:09.292Z,29.357605
2022-08-10T10:24:20.095Z,29.387817
2022-08-10T10:25:49.763Z,29.407959
2022-08-10T10:26:38.219Z,29.387817
2022-08-10T10:27:46.901Z,29.468384
2022-08-10T10:30:05.178Z,29.317322
2022-08-10T10:31:16.321Z,29.41803
2022-08-10T10:32:21.495Z,29.41803
2022-08-10T10:33:32.187Z,29.377747
2022-08-10T10:34:39.873Z,29.317322
2022-08-10T10:35:49.517Z,29.196472
2022-08-10T10:36:59.203Z,29.186401
2022-08-10T10:38:06.865Z,29.317322
2022-08-10T10:39:19.506Z,29.377747
2022-08-10T10:40:26.212Z,29.438171
2022-08-10T10:41:55.824Z,29.508667
2022-08-10T10:42:46.503Z,29.689941
2022-08-10T10:43:54.144Z,29.820862
2022-08-10T10:45:03.800Z,29.790649
2022-08-10T10:46:14.476Z,29.780579
2022-08-10T10:47:24.107Z,29.730225
2022-08-10T10:48:33.774Z,29.810791
2022-08-10T10:49:42.434Z,29.841003
2022-08-10T10:50:51.152Z,29.720154
2022-08-10T10:52:02.120Z,29.599304
2022-08-10T10:53:09.473Z,29.559021
2022-08-10T10:54:19.125Z,29.438171
2022-08-10T10:55:27.827Z,29.438171
2022-08-10T10:56:38.492Z,29.337463
2022-08-10T10:57:58.217Z,29.256897
2022-08-10T10:58:58.769Z,29.156189
2022-08-10T11:00:09.427Z,28.934631
2022-08-10T11:01:19.148Z,28.79364
2022-08-10T11:02:27.903Z,28.562012
2022-08-10T11:03:36.547Z,28.572083
2022-08-10T11:04:45.245Z,28.642578
2022-08-10T11:05:55.897Z,28.592224
2022-08-10T11:07:06.599Z,28.703003
2022-08-10T11:08:15.420Z,28.91449
2022-08-10T11:10:04.142Z,28.884277
2022-08-10T11:10:43.372Z,28.843994
2022-08-10T11:11:59.956Z,28.884277
2022-08-10T11:12:57.851Z,28.964844
2022-08-10T11:14:24.318Z,29.226685
2022-08-10T11:15:19.225Z,29.307251
2022-08-10T11:16:28.892Z,29.41803
2022-08-10T11:17:36.683Z,29.387817
2022-08-10T11:18:45.263Z,29.266968
2022-08-10T11:20:00.722Z,29.065552
2022-08-10T11:21:05.607Z,28.894348
2022-08-10T11:22:16.475Z,28.864136
2022-08-10T11:23:25.038Z,28.723145
2022-08-10T11:24:43.341Z,28.703003
2022-08-10T11:25:43.351Z,28.823853
2022-08-10T11:26:51.001Z,29.04541
2022-08-10T11:27:58.680Z,29.186401
2022-08-10T11:29:08.371Z,29.226685
2022-08-10T11:30:16.023Z,29.266968
2022-08-10T11:31:25.723Z,29.287109
2022-08-10T11:32:34.409Z,29.226685
2022-08-10T11:33:57.393Z,28.894348
2022-08-10T11:35:10.080Z,28.884277
2022-08-10T11:36:05.360Z,28.864136
2022-08-10T11:37:15.047Z,28.66272
2022-08-10T11:38:29.952Z,28.390808
2022-08-10T11:39:33.419Z,28.330383
2022-08-10T11:40:44.000Z,28.380737
2022-08-10T11:42:06.932Z,28.269958
2022-08-10T11:43:02.365Z,28.350525
2022-08-10T11:44:12.043Z,28.390808
2022-08-10T11:45:19.695Z,28.562012
2022-08-10T11:46:29.372Z,28.703003
2022-08-10T11:47:38.033Z,28.884277
2022-08-10T11:48:52.797Z,29.125977
2022-08-10T11:49:57.477Z,29.075623
2022-08-10T11:51:05.131Z,29.04541
2022-08-10T11:52:14.781Z,29.136047
2022-08-10T11:53:32.231Z,29.287109
2022-08-10T11:54:41.325Z,29.256897
2022-08-10T11:55:51.958Z,29.407959
2022-08-10T11:57:02.688Z,29.559021
2022-08-10T11:58:09.501Z,29.790649
2022-08-10T11:59:18.193Z,29.881287
2022-08-10T12:00:29.448Z,30.022278
2022-08-10T12:01:35.608Z,30.153198
2022-08-10T12:02:45.356Z,30.284119
2022-08-10T12:03:54.021Z,30.525818
2022-08-10T12:05:02.730Z,30.686951
2022-08-10T12:06:12.541Z,30.777588
2022-08-10T12:08:10.264Z,30.827942
2022-08-10T12:10:03.132Z,30.535889
2022-08-10T12:10:08.175Z,30.30426
2022-08-10T12:10:54.435Z,30.354614
2022-08-10T12:12:04.189Z,30.495605
2022-08-10T12:13:11.943Z,30.42511
2022-08-10T12:14:22.157Z,29.881287
2022-08-10T12:15:30.325Z,28.189392
2022-08-10T12:16:37.019Z,28.229675
2022-08-10T12:17:46.864Z,27.705994
2022-08-10T12:18:55.603Z,27.857056
2022-08-10T12:20:04.320Z,28.03833
2022-08-10T12:21:14.140Z,28.703003
2022-08-10T12:22:23.727Z,29.216614
2022-08-10T12:23:39.203Z,29.659729
2022-08-10T12:24:43.212Z,29.971924
2022-08-10T12:25:55.349Z,30.153198
2022-08-10T12:27:02.601Z,30.404968
2022-08-10T12:28:12.332Z,30.646667
2022-08-10T12:29:23.619Z,30.797729
2022-08-10T12:30:29.736Z,30.918579
2022-08-10T12:31:37.431Z,30.767517
2022-08-10T12:32:46.115Z,30.999146
2022-08-10T12:34:01.724Z,31.069641
2022-08-10T12:35:05.609Z,31.240845
2022-08-10T12:36:18.675Z,31.43219
2022-08-10T12:37:24.998Z,31.56311
2022-08-10T12:38:33.673Z,31.744385
2022-08-10T12:39:43.449Z,31.512756
2022-08-10T12:40:53.150Z,31.43219
2022-08-10T12:42:01.866Z,31.250916
2022-08-10T12:43:12.895Z,31.271057
2022-08-10T12:44:22.243Z,31.210632
2022-08-10T12:45:32.967Z,31.341553
2022-08-10T12:46:42.729Z,31.522827
2022-08-10T12:47:52.530Z,31.542969
2022-08-10T12:49:02.222Z,31.653748
2022-08-10T12:50:14.020Z,31.583252
2022-08-10T12:51:20.618Z,31.613464
2022-08-10T12:52:30.370Z,31.331482
2022-08-10T12:53:39.085Z,31.240845
2022-08-10T12:54:48.834Z,31.271057
2022-08-10T12:55:58.617Z,31.371765
2022-08-10T12:57:06.278Z,31.422119
2022-08-10T12:58:58.445Z,31.55304
2022-08-10T12:59:26.692Z,31.694031
2022-08-10T13:00:44.907Z,31.663818
2022-08-10T13:02:07.094Z,31.734314
2022-08-10T13:02:57.830Z,31.996155
2022-08-10T13:04:20.292Z,31.986084
2022-08-10T13:05:18.280Z,31.996155
2022-08-10T13:06:26.213Z,31.965942
2022-08-10T13:08:03.331Z,31.653748
2022-08-10T13:08:46.528Z,31.784668
2022-08-10T13:09:56.809Z,32.117004
2022-08-10T13:11:05.134Z,32.288208
2022-08-10T13:12:34.477Z,32.358704
2022-08-10T13:13:26.582Z,31.996155
2022-08-10T13:14:36.344Z,31.714172
2022-08-10T13:15:50.208Z,31.43219
2022-08-10T13:16:55.905Z,31.281128
2022-08-10T13:18:04.614Z,31.43219